createdAt,value
2019-01-19T00:00:54.221Z,0.00
2019-01-19T00:01:54.294Z,0.00
2019-01-19T00:02:54.218Z,0.00
2019-01-19T00:03:54.192Z,0.00
2019-01-19T00:04:54.203Z,0.00
2019-01-19T00:05:54.185Z,0.00
2019-01-19T00:06:54.160Z,0.00
2019-01-19T00:07:54.186Z,0.00
2019-01-19T00:08:54.136Z,0.00
2019-01-19T00:09:54.143Z,0.00
2019-01-19T00:10:54.112Z,0.00
2019-01-19T00:11:54.132Z,0.00
2019-01-19T00:12:54.107Z,0.00
2019-01-19T00:13:54.092Z,0.00
2019-01-19T00:14:54.072Z,0.00
2019-01-19T00:15:54.058Z,0.00
2019-01-19T00:16:54.048Z,0.00
2019-01-19T00:17:54.052Z,0.00
2019-01-19T00:18:54.040Z,0.00
2019-01-19T00:19:54.011Z,0.00
2019-01-19T00:20:54.001Z,0.00
2019-01-19T00:21:53.988Z,0.00
2019-01-19T00:22:53.977Z,0.00
2019-01-19T00:23:53.985Z,0.00
2019-01-19T00:24:53.973Z,0.00
2019-01-19T00:25:53.944Z,0.00
2019-01-19T00:26:53.936Z,0.00
2019-01-19T00:27:53.941Z,0.00
2019-01-19T00:28:53.914Z,0.00
2019-01-19T00:29:53.914Z,0.00
2019-01-19T00:30:53.972Z,0.00
2019-01-19T00:31:53.886Z,0.00
2019-01-19T00:32:53.871Z,0.00
2019-01-19T00:33:53.859Z,0.00
2019-01-19T00:34:53.874Z,0.00
2019-01-19T00:35:53.856Z,0.00
2019-01-19T00:36:53.827Z,0.00
2019-01-19T00:37:53.818Z,0.00
2019-01-19T00:38:53.852Z,0.00
2019-01-19T00:39:53.796Z,0.00
2019-01-19T00:40:53.838Z,0.00
2019-01-19T00:41:53.846Z,0.00
2019-01-19T00:42:53.786Z,0.00
2019-01-19T00:43:53.760Z,0.00
2019-01-19T00:44:53.745Z,0.00
2019-01-19T00:45:53.781Z,0.00
2019-01-19T00:46:54.760Z,0.00
2019-01-19T00:47:53.714Z,0.00
2019-01-19T00:48:53.699Z,0.00
2019-01-19T00:49:53.682Z,0.00
2019-01-19T00:50:53.675Z,0.00
2019-01-19T00:51:53.682Z,0.00
2019-01-19T00:52:53.656Z,0.00
2019-01-19T00:53:53.655Z,0.00
2019-01-19T00:54:53.638Z,0.00
2019-01-19T00:55:53.622Z,0.00
2019-01-19T00:56:53.636Z,0.00
2019-01-19T00:57:53.623Z,0.00
2019-01-19T00:58:53.686Z,0.00
2019-01-19T00:59:53.687Z,0.00
2019-01-19T01:00:53.584Z,0.00
2019-01-19T01:01:53.564Z,0.00
2019-01-19T01:02:53.560Z,0.00
2019-01-19T01:03:53.543Z,0.00
2019-01-19T01:04:53.534Z,0.00
2019-01-19T01:05:53.542Z,0.00
2019-01-19T01:06:53.504Z,0.00
2019-01-19T01:07:53.514Z,0.00
2019-01-19T01:08:53.504Z,0.00
2019-01-19T01:09:53.479Z,0.00
2019-01-19T01:10:53.471Z,0.00
2019-01-19T01:11:53.458Z,0.00
2019-01-19T01:12:53.442Z,0.00
2019-01-19T01:13:53.426Z,0.00
2019-01-19T01:14:53.422Z,0.00
2019-01-19T01:15:53.398Z,0.00
2019-01-19T01:16:53.390Z,0.00
2019-01-19T01:17:53.391Z,0.00
2019-01-19T01:18:53.372Z,0.00
2019-01-19T01:19:53.413Z,0.00
2019-01-19T01:20:53.347Z,0.00
2019-01-19T01:21:53.346Z,0.00
2019-01-19T01:22:53.352Z,0.00
2019-01-19T01:23:53.315Z,0.00
2019-01-19T01:24:53.307Z,0.00
2019-01-19T01:25:53.337Z,0.00
2019-01-19T01:26:53.301Z,0.00
2019-01-19T01:27:53.275Z,0.00
2019-01-19T01:28:53.269Z,0.00
2019-01-19T01:29:53.248Z,0.00
2019-01-19T01:30:53.257Z,0.00
2019-01-19T01:31:53.236Z,0.00
2019-01-19T01:32:53.226Z,0.00
2019-01-19T01:33:53.218Z,0.00
2019-01-19T01:34:53.195Z,0.00
2019-01-19T01:35:53.246Z,0.00
2019-01-19T01:36:53.212Z,0.00
2019-01-19T01:37:53.170Z,0.00
2019-01-19T01:38:53.171Z,0.00
2019-01-19T01:39:53.147Z,0.00
2019-01-19T01:40:53.134Z,0.00
2019-01-19T01:41:53.122Z,0.00
2019-01-19T01:42:53.140Z,0.00
2019-01-19T01:43:53.100Z,0.00
2019-01-19T01:44:53.084Z,0.00
2019-01-19T01:45:53.095Z,0.00
2019-01-19T01:46:53.072Z,0.00
2019-01-19T01:47:53.063Z,0.00
2019-01-19T01:48:53.117Z,0.00
2019-01-19T01:49:53.043Z,0.00
2019-01-19T01:50:53.028Z,0.00
2019-01-19T01:51:53.017Z,0.00
2019-01-19T01:52:53.008Z,0.00
2019-01-19T01:53:53.004Z,0.00
2019-01-19T01:54:52.997Z,0.00
2019-01-19T01:55:52.974Z,0.00
2019-01-19T01:56:52.973Z,0.00
2019-01-19T01:57:52.995Z,0.00
2019-01-19T01:58:52.932Z,0.00
2019-01-19T01:59:52.943Z,0.00
2019-01-19T02:00:52.923Z,0.00
2019-01-19T02:01:52.913Z,0.00
2019-01-19T02:02:52.896Z,0.00
2019-01-19T02:03:52.882Z,0.00
2019-01-19T02:04:52.869Z,0.00
2019-01-19T02:05:52.875Z,0.00
2019-01-19T02:06:52.876Z,0.00
2019-01-19T02:07:52.848Z,0.00
2019-01-19T02:08:52.858Z,0.00
2019-01-19T02:09:52.836Z,0.00
2019-01-19T02:10:52.807Z,0.00
2019-01-19T02:11:52.825Z,0.00
2019-01-19T02:12:52.783Z,0.00
2019-01-19T02:13:52.778Z,0.00
2019-01-19T02:14:52.768Z,0.00
2019-01-19T02:15:52.762Z,0.00
2019-01-19T02:16:52.740Z,0.00
2019-01-19T02:17:52.752Z,0.00
2019-01-19T02:18:52.727Z,0.00
2019-01-19T02:19:52.718Z,0.00
2019-01-19T02:20:52.698Z,0.00
2019-01-19T02:21:52.714Z,0.00
2019-01-19T02:22:52.683Z,0.00
2019-01-19T02:23:52.676Z,0.00
2019-01-19T02:24:52.665Z,0.00
2019-01-19T02:25:52.645Z,0.00
2019-01-19T02:26:52.639Z,0.00
2019-01-19T02:27:52.627Z,0.00
2019-01-19T02:28:52.636Z,0.00
2019-01-19T02:29:52.599Z,0.00
2019-01-19T02:30:52.587Z,0.00
2019-01-19T02:31:52.582Z,0.00
2019-01-19T02:32:52.570Z,0.00
2019-01-19T02:33:52.555Z,0.00
2019-01-19T02:34:52.563Z,0.00
2019-01-19T02:35:52.536Z,0.00
2019-01-19T02:36:52.523Z,0.00
2019-01-19T02:37:52.508Z,0.00
2019-01-19T02:38:52.507Z,0.00
2019-01-19T02:39:52.507Z,0.00
2019-01-19T02:40:52.519Z,0.00
2019-01-19T02:41:52.477Z,0.00
2019-01-19T02:42:52.453Z,0.00
2019-01-19T02:43:52.451Z,0.00
2019-01-19T02:44:52.438Z,0.00
2019-01-19T02:45:52.424Z,0.00
2019-01-19T02:46:52.426Z,0.00
2019-01-19T02:47:52.402Z,0.00
2019-01-19T02:48:52.395Z,0.00
2019-01-19T02:49:52.389Z,0.00
2019-01-19T02:50:52.385Z,0.00
2019-01-19T02:51:52.359Z,0.00
2019-01-19T02:52:52.362Z,0.00
2019-01-19T02:53:52.341Z,0.00
2019-01-19T02:54:52.346Z,0.00
2019-01-19T02:55:52.335Z,0.00
2019-01-19T02:56:52.321Z,0.00
2019-01-19T02:57:52.294Z,0.00
2019-01-19T02:58:52.278Z,0.00
2019-01-19T02:59:52.270Z,0.00
2019-01-19T03:00:52.284Z,0.00
2019-01-19T03:01:52.251Z,0.00
2019-01-19T03:02:52.249Z,0.00
2019-01-19T03:03:52.228Z,0.00
2019-01-19T03:04:52.229Z,0.00
2019-01-19T03:05:56.198Z,0.00
2019-01-19T03:06:52.247Z,0.00
2019-01-19T03:07:52.198Z,0.00
2019-01-19T03:08:52.170Z,0.00
2019-01-19T03:09:52.214Z,0.00
2019-01-19T03:10:52.173Z,0.00
2019-01-19T03:11:52.138Z,0.00
2019-01-19T03:12:52.143Z,0.00
2019-01-19T03:13:52.117Z,0.00
2019-01-19T03:14:52.117Z,0.00
2019-01-19T03:15:52.094Z,0.00
2019-01-19T03:16:52.091Z,0.00
2019-01-19T03:17:52.069Z,0.00
2019-01-19T03:18:52.076Z,0.00
2019-01-19T03:19:52.088Z,0.00
2019-01-19T03:20:52.041Z,0.00
2019-01-19T03:21:52.030Z,0.00
2019-01-19T03:22:52.021Z,0.00
2019-01-19T03:23:52.013Z,0.00
2019-01-19T03:24:52.012Z,0.00
2019-01-19T03:25:52.005Z,0.00
2019-01-19T03:26:51.975Z,0.00
2019-01-19T03:27:51.967Z,0.00
2019-01-19T03:28:51.961Z,0.00
2019-01-19T03:29:51.958Z,0.00
2019-01-19T03:30:51.945Z,0.00
2019-01-19T03:31:51.932Z,0.00
2019-01-19T03:32:51.929Z,0.00
2019-01-19T03:33:51.900Z,0.00
2019-01-19T03:34:51.922Z,0.00
2019-01-19T03:35:51.897Z,0.00
2019-01-19T03:36:51.870Z,0.00
2019-01-19T03:37:51.898Z,0.00
2019-01-19T03:38:51.843Z,0.00
2019-01-19T03:39:51.833Z,0.00
2019-01-19T03:40:51.860Z,0.00
2019-01-19T03:41:51.819Z,0.00
2019-01-19T03:42:51.819Z,0.00
2019-01-19T03:43:51.790Z,0.00
2019-01-19T03:44:51.789Z,0.00
2019-01-19T03:45:51.768Z,0.00
2019-01-19T03:46:51.763Z,0.00
2019-01-19T03:47:51.797Z,0.00
2019-01-19T03:48:51.738Z,0.00
2019-01-19T03:49:51.727Z,0.00
2019-01-19T03:50:51.725Z,0.00
2019-01-19T03:51:51.732Z,0.00
2019-01-19T03:52:51.690Z,0.00
2019-01-19T03:53:51.695Z,0.00
2019-01-19T03:54:51.672Z,0.00
2019-01-19T03:55:51.664Z,0.00
2019-01-19T03:56:51.650Z,0.00
2019-01-19T03:57:51.676Z,0.00
2019-01-19T03:58:51.640Z,0.00
2019-01-19T03:59:51.626Z,0.00
2019-01-19T04:00:51.618Z,0.00
2019-01-19T04:01:51.591Z,0.00
2019-01-19T04:02:51.631Z,0.00
2019-01-19T04:03:51.594Z,0.00
2019-01-19T04:04:51.587Z,0.00
2019-01-19T04:05:51.546Z,0.00
2019-01-19T04:06:51.552Z,0.00
2019-01-19T04:07:51.525Z,0.00
2019-01-19T04:08:51.514Z,0.00
2019-01-19T04:09:51.517Z,0.00
2019-01-19T04:10:51.512Z,0.00
2019-01-19T04:11:51.503Z,0.00
2019-01-19T04:12:51.475Z,0.00
2019-01-19T04:13:51.461Z,0.00
2019-01-19T04:14:51.451Z,0.00
2019-01-19T04:15:51.443Z,0.00
2019-01-19T04:16:51.441Z,0.00
2019-01-19T04:17:51.423Z,0.00
2019-01-19T04:18:51.413Z,0.00
2019-01-19T04:19:51.414Z,0.00
2019-01-19T04:20:51.386Z,0.00
2019-01-19T04:21:51.373Z,0.00
2019-01-19T04:22:51.377Z,0.00
2019-01-19T04:23:51.358Z,0.00
2019-01-19T04:24:51.347Z,0.00
2019-01-19T04:25:51.351Z,0.00
2019-01-19T04:26:51.319Z,0.00
2019-01-19T04:27:51.313Z,0.00
2019-01-19T04:28:51.317Z,0.00
2019-01-19T04:29:51.291Z,0.00
2019-01-19T04:30:51.297Z,0.00
2019-01-19T04:31:51.269Z,0.00
2019-01-19T04:32:51.316Z,0.00
2019-01-19T04:33:51.298Z,0.00
2019-01-19T04:34:51.249Z,0.00
2019-01-19T04:35:51.244Z,0.00
2019-01-19T04:36:51.217Z,0.00
2019-01-19T04:37:51.208Z,0.00
2019-01-19T04:38:51.194Z,0.00
2019-01-19T04:39:51.195Z,0.00
2019-01-19T04:40:51.178Z,0.00
2019-01-19T04:41:51.169Z,0.00
2019-01-19T04:42:51.144Z,0.00
2019-01-19T04:43:51.133Z,0.00
2019-01-19T04:44:51.138Z,0.00
2019-01-19T04:45:51.142Z,0.00
2019-01-19T04:46:51.112Z,0.00
2019-01-19T04:47:51.098Z,0.00
2019-01-19T04:48:51.087Z,0.00
2019-01-19T04:49:51.075Z,0.00
2019-01-19T04:50:51.059Z,0.00
2019-01-19T04:51:51.065Z,0.00
2019-01-19T04:52:51.047Z,0.00
2019-01-19T04:53:51.048Z,0.00
2019-01-19T04:54:51.029Z,0.00
2019-01-19T04:55:51.006Z,0.00
2019-01-19T04:56:51.064Z,0.00
2019-01-19T04:57:51.003Z,0.00
2019-01-19T04:58:50.976Z,0.00
2019-01-19T04:59:51.007Z,0.00
2019-01-19T05:00:50.961Z,0.00
2019-01-19T05:01:50.947Z,0.00
2019-01-19T05:02:50.945Z,0.00
2019-01-19T05:03:50.933Z,0.00
2019-01-19T05:04:50.956Z,0.00
2019-01-19T05:05:50.921Z,0.00
2019-01-19T05:06:50.892Z,0.00
2019-01-19T05:07:50.878Z,0.00
2019-01-19T05:08:50.876Z,0.00
2019-01-19T05:09:50.867Z,0.00
2019-01-19T05:10:50.853Z,0.00
2019-01-19T05:11:50.863Z,0.00
2019-01-19T05:12:58.427Z,0.00
2019-01-19T05:13:50.861Z,0.00
2019-01-19T05:14:50.803Z,0.00
2019-01-19T05:15:50.792Z,0.00
2019-01-19T05:16:50.828Z,0.00
2019-01-19T05:17:50.788Z,0.00
2019-01-19T05:18:50.760Z,0.00
2019-01-19T05:19:50.750Z,0.00
2019-01-19T05:20:50.741Z,0.00
2019-01-19T05:21:50.731Z,0.00
2019-01-19T05:22:50.722Z,0.00
2019-01-19T05:23:50.700Z,0.00
2019-01-19T05:24:50.705Z,0.00
2019-01-19T05:25:50.679Z,0.00
2019-01-19T05:26:50.673Z,0.00
2019-01-19T05:27:50.657Z,0.00
2019-01-19T05:28:50.648Z,0.00
2019-01-19T05:29:50.635Z,0.00
2019-01-19T05:30:50.643Z,0.00
2019-01-19T05:31:50.630Z,0.00
2019-01-19T05:32:50.634Z,0.00
2019-01-19T05:33:50.593Z,0.00
2019-01-19T05:34:50.585Z,0.00
2019-01-19T05:35:50.585Z,0.00
2019-01-19T05:36:50.615Z,0.00
2019-01-19T05:37:50.560Z,0.00
2019-01-19T05:38:50.539Z,0.00
2019-01-19T05:39:50.542Z,0.00
2019-01-19T05:40:50.516Z,0.00
2019-01-19T05:41:50.505Z,0.00
2019-01-19T05:42:50.535Z,0.00
2019-01-19T05:43:50.502Z,0.00
2019-01-19T05:44:50.482Z,0.00
2019-01-19T05:45:50.463Z,0.00
2019-01-19T05:46:50.466Z,0.00
2019-01-19T05:47:50.460Z,0.00
2019-01-19T05:48:50.430Z,0.00
2019-01-19T05:49:50.428Z,0.00
2019-01-19T05:50:50.417Z,0.00
2019-01-19T05:51:50.416Z,0.00
2019-01-19T05:52:50.389Z,0.00
2019-01-19T05:53:50.395Z,0.00
2019-01-19T05:54:50.367Z,0.00
2019-01-19T05:55:50.354Z,0.00
2019-01-19T05:56:50.347Z,0.00
2019-01-19T05:57:50.337Z,0.00
2019-01-19T05:58:50.337Z,0.00
2019-01-19T05:59:50.311Z,0.00
2019-01-19T06:00:50.313Z,0.00
2019-01-19T06:01:50.290Z,0.00
2019-01-19T06:02:50.280Z,0.00
2019-01-19T06:03:50.279Z,0.00
2019-01-19T06:04:50.280Z,0.00
2019-01-19T06:05:50.300Z,0.00
2019-01-19T06:06:50.243Z,0.00
2019-01-19T06:07:50.231Z,0.00
2019-01-19T06:08:50.217Z,0.00
2019-01-19T06:09:50.211Z,0.00
2019-01-19T06:10:50.226Z,0.00
2019-01-19T06:11:50.191Z,0.00
2019-01-19T06:12:50.180Z,0.00
2019-01-19T06:13:50.180Z,0.00
2019-01-19T06:14:50.160Z,0.00
2019-01-19T06:15:50.144Z,0.00
2019-01-19T06:16:50.149Z,0.00
2019-01-19T06:17:50.123Z,0.00
2019-01-19T06:18:50.112Z,0.00
2019-01-19T06:19:50.112Z,0.00
2019-01-19T06:20:50.106Z,0.00
2019-01-19T06:21:50.078Z,0.00
2019-01-19T06:22:50.108Z,0.00
2019-01-19T06:23:50.053Z,0.00
2019-01-19T06:24:50.066Z,0.00
2019-01-19T06:25:50.037Z,0.00
2019-01-19T06:26:50.028Z,0.00
2019-01-19T06:27:50.017Z,0.00
2019-01-19T06:28:50.023Z,0.00
2019-01-19T06:29:49.989Z,0.00
2019-01-19T06:30:49.978Z,0.00
2019-01-19T06:31:49.974Z,0.00
2019-01-19T06:32:49.973Z,0.00
2019-01-19T06:33:49.971Z,0.00
2019-01-19T06:34:49.959Z,0.00
2019-01-19T06:35:49.932Z,0.00
2019-01-19T06:36:54.899Z,0.00
2019-01-19T06:37:50.933Z,0.00
2019-01-19T06:38:49.899Z,0.00
2019-01-19T06:39:49.881Z,0.00
2019-01-19T06:40:49.886Z,0.00
2019-01-19T06:41:49.870Z,0.00
2019-01-19T06:42:49.854Z,0.00
2019-01-19T06:43:49.855Z,0.00
2019-01-19T06:44:49.841Z,0.00
2019-01-19T06:45:49.817Z,0.00
2019-01-19T06:46:49.818Z,0.00
2019-01-19T06:47:49.796Z,0.00
2019-01-19T06:48:49.800Z,0.00
2019-01-19T06:49:49.832Z,0.00
2019-01-19T06:50:49.765Z,0.00
2019-01-19T06:51:49.785Z,0.00
2019-01-19T06:52:49.740Z,0.00
2019-01-19T06:53:49.745Z,0.00
2019-01-19T06:54:49.764Z,0.00
2019-01-19T06:55:49.720Z,0.00
2019-01-19T06:56:49.717Z,0.00
2019-01-19T06:57:49.709Z,0.00
2019-01-19T06:58:49.678Z,4.00
2019-01-19T06:59:49.685Z,4.00
2019-01-19T07:00:49.683Z,0.00
2019-01-19T07:01:49.663Z,0.00
2019-01-19T07:02:49.664Z,4.00
2019-01-19T07:03:49.622Z,0.00
2019-01-19T07:04:49.629Z,4.00
2019-01-19T07:05:49.620Z,4.00
2019-01-19T07:06:49.605Z,4.00
2019-01-19T07:07:49.621Z,4.00
2019-01-19T07:08:49.575Z,4.00
2019-01-19T07:09:49.558Z,4.00
2019-01-19T07:10:49.551Z,8.00
2019-01-19T07:11:49.577Z,8.00
2019-01-19T07:12:49.544Z,8.00
2019-01-19T07:13:49.549Z,12.00
2019-01-19T07:14:49.566Z,12.00
2019-01-19T07:15:49.521Z,12.00
2019-01-19T07:16:49.487Z,12.00
2019-01-19T07:17:49.490Z,16.00
2019-01-19T07:18:49.461Z,16.00
2019-01-19T07:19:49.470Z,20.00
2019-01-19T07:20:49.454Z,20.00
2019-01-19T07:21:49.442Z,20.00
2019-01-19T07:22:49.420Z,24.00
2019-01-19T07:23:49.420Z,24.00
2019-01-19T07:24:49.399Z,32.00
2019-01-19T07:25:49.407Z,36.00
2019-01-19T07:26:49.433Z,40.00
2019-01-19T07:27:49.369Z,44.00
2019-01-19T07:28:49.383Z,48.00
2019-01-19T07:29:49.378Z,52.00
2019-01-19T07:30:49.333Z,56.00
2019-01-19T07:31:49.347Z,64.00
2019-01-19T07:32:49.352Z,68.00
2019-01-19T07:33:49.302Z,76.00
2019-01-19T07:34:49.287Z,80.00
2019-01-19T07:35:49.280Z,88.00
2019-01-19T07:36:49.279Z,96.00
2019-01-19T07:37:49.257Z,104.00
2019-01-19T07:38:49.277Z,112.00
2019-01-19T07:39:49.236Z,120.00
2019-01-19T07:40:49.225Z,128.00
2019-01-19T07:41:49.229Z,140.00
2019-01-19T07:42:49.230Z,148.00
2019-01-19T07:43:49.191Z,164.00
2019-01-19T07:44:49.211Z,172.00
2019-01-19T07:45:49.173Z,184.00
2019-01-19T07:46:55.831Z,196.00
2019-01-19T07:47:50.150Z,212.00
2019-01-19T07:48:49.140Z,224.00
2019-01-19T07:49:49.126Z,236.00
2019-01-19T07:50:49.156Z,252.00
2019-01-19T07:51:49.127Z,268.00
2019-01-19T07:52:49.097Z,280.00
2019-01-19T07:53:49.089Z,296.00
2019-01-19T07:54:49.093Z,308.00
2019-01-19T07:55:49.080Z,324.00
2019-01-19T07:56:49.089Z,340.00
2019-01-19T07:57:49.061Z,356.00
2019-01-19T07:58:49.058Z,376.00
2019-01-19T07:59:49.042Z,368.00
2019-01-19T08:00:49.013Z,396.00
2019-01-19T08:01:49.013Z,392.00
2019-01-19T08:02:49.013Z,400.00
2019-01-19T08:03:48.978Z,424.00
2019-01-19T08:04:48.990Z,440.00
2019-01-19T08:05:48.956Z,420.00
2019-01-19T08:06:48.946Z,440.00
2019-01-19T08:07:48.957Z,492.00
2019-01-19T08:08:48.968Z,472.00
2019-01-19T08:09:48.912Z,460.00
2019-01-19T08:10:48.902Z,544.00
2019-01-19T08:11:48.912Z,504.00
2019-01-19T08:12:48.901Z,516.00
2019-01-19T08:13:48.870Z,552.00
2019-01-19T08:14:48.884Z,592.00
2019-01-19T08:15:48.861Z,564.00
2019-01-19T08:16:48.850Z,600.00
2019-01-19T08:17:48.855Z,620.00
2019-01-19T08:18:48.838Z,644.00
2019-01-19T08:19:48.805Z,676.00
2019-01-19T08:20:48.813Z,704.00
2019-01-19T08:21:48.784Z,688.00
2019-01-19T08:22:48.777Z,720.00
2019-01-19T08:23:48.761Z,752.00
2019-01-19T08:24:48.752Z,792.00
2019-01-19T08:25:48.758Z,816.00
2019-01-19T08:26:48.752Z,836.00
2019-01-19T08:27:48.718Z,844.00
2019-01-19T08:28:48.724Z,900.00
2019-01-19T08:29:48.723Z,964.00
2019-01-19T08:30:48.704Z,1024.00
2019-01-19T08:31:48.732Z,1100.00
2019-01-19T08:32:48.691Z,1152.00
2019-01-19T08:33:48.653Z,1200.00
2019-01-19T08:34:48.658Z,1252.00
2019-01-19T08:35:48.656Z,1244.00
2019-01-19T08:36:48.621Z,1404.00
2019-01-19T08:37:48.627Z,1408.00
2019-01-19T08:38:48.609Z,1576.00
2019-01-19T08:39:48.591Z,3084.00
2019-01-19T08:40:48.580Z,4844.00
2019-01-19T08:41:48.571Z,6252.00
2019-01-19T08:42:48.558Z,7536.00
2019-01-19T08:43:48.573Z,8196.00
2019-01-19T08:44:48.557Z,12416.00
2019-01-19T08:45:48.529Z,14976.00
2019-01-19T08:46:48.513Z,14496.00
2019-01-19T08:47:48.502Z,14560.00
2019-01-19T08:48:48.556Z,12332.00
2019-01-19T08:49:48.528Z,14592.00
2019-01-19T08:50:48.478Z,15968.00
2019-01-19T08:51:48.479Z,15168.00
2019-01-19T08:52:48.445Z,14720.00
2019-01-19T08:53:48.440Z,18208.00
2019-01-19T08:54:48.438Z,24032.00
2019-01-19T08:55:48.414Z,22880.00
2019-01-19T08:56:48.402Z,20128.00
2019-01-19T08:57:48.434Z,26272.00
2019-01-19T08:58:48.380Z,19936.00
2019-01-19T08:59:48.369Z,16800.00
2019-01-19T09:00:48.371Z,14048.00
2019-01-19T09:01:48.350Z,19744.00
2019-01-19T09:02:48.338Z,16032.00
2019-01-19T09:03:48.348Z,8384.00
2019-01-19T09:04:48.313Z,14624.00
2019-01-19T09:05:48.316Z,16448.00
2019-01-19T09:06:48.311Z,17984.00
2019-01-19T09:07:48.279Z,24192.00
2019-01-19T09:08:48.305Z,18464.00
2019-01-19T09:09:48.263Z,23392.00
2019-01-19T09:10:48.246Z,24768.00
2019-01-19T09:11:48.256Z,26752.00
2019-01-19T09:12:48.224Z,33056.00
2019-01-19T09:13:48.240Z,18688.00
2019-01-19T09:14:48.201Z,17120.00
2019-01-19T09:15:48.227Z,12544.00
2019-01-19T09:16:48.192Z,12412.00
2019-01-19T09:17:48.197Z,14424.00
2019-01-19T09:18:48.157Z,7944.00
2019-01-19T09:19:48.145Z,5752.00
2019-01-19T09:20:48.151Z,2804.00
2019-01-19T09:21:49.710Z,2560.00
2019-01-19T09:22:48.137Z,2344.00
2019-01-19T09:23:48.141Z,2208.00
2019-01-19T09:24:48.094Z,2272.00
2019-01-19T09:25:48.079Z,2252.00
2019-01-19T09:26:48.082Z,2124.00
2019-01-19T09:27:48.058Z,2092.00
2019-01-19T09:28:48.058Z,2092.00
2019-01-19T09:29:48.052Z,2028.00
2019-01-19T09:30:48.025Z,2032.00
2019-01-19T09:31:48.055Z,2112.00
2019-01-19T09:32:48.003Z,2112.00
2019-01-19T09:33:48.009Z,2016.00
2019-01-19T09:34:48.001Z,1928.00
2019-01-19T09:35:47.988Z,1920.00
2019-01-19T09:36:47.987Z,1824.00
2019-01-19T09:37:47.946Z,1716.00
2019-01-19T09:38:47.934Z,1604.00
2019-01-19T09:39:47.926Z,1560.00
2019-01-19T09:40:47.937Z,1592.00
2019-01-19T09:41:47.929Z,1624.00
2019-01-19T09:42:47.894Z,1624.00
2019-01-19T09:43:47.886Z,1588.00
2019-01-19T09:44:47.875Z,1560.00
2019-01-19T09:45:47.880Z,1588.00
2019-01-19T09:46:47.852Z,1620.00
2019-01-19T09:47:47.863Z,1660.00
2019-01-19T09:48:47.853Z,1660.00
2019-01-19T09:49:47.833Z,1628.00
2019-01-19T09:50:47.803Z,1616.00
2019-01-19T09:51:47.793Z,1672.00
2019-01-19T09:52:47.797Z,1672.00
2019-01-19T09:53:47.792Z,1708.00
2019-01-19T09:54:47.762Z,1728.00
2019-01-19T09:55:47.747Z,1592.00
2019-01-19T09:56:47.763Z,1560.00
2019-01-19T09:57:47.724Z,1580.00
2019-01-19T09:58:47.714Z,1680.00
2019-01-19T09:59:47.747Z,1752.00
2019-01-19T10:00:47.691Z,1812.00
2019-01-19T10:01:47.679Z,1784.00
2019-01-19T10:02:47.675Z,1788.00
2019-01-19T10:03:47.657Z,1724.00
2019-01-19T10:04:47.669Z,1716.00
2019-01-19T10:05:47.671Z,1760.00
2019-01-19T10:06:48.312Z,1808.00
2019-01-19T10:07:48.642Z,1836.00
2019-01-19T10:08:47.602Z,1836.00
2019-01-19T10:09:47.591Z,1760.00
2019-01-19T10:10:47.583Z,1708.00
2019-01-19T10:11:47.591Z,1728.00
2019-01-19T10:12:47.564Z,1772.00
2019-01-19T10:13:47.571Z,1812.00
2019-01-19T10:14:47.533Z,1752.00
2019-01-19T10:15:47.526Z,1664.00
2019-01-19T10:16:47.512Z,1628.00
2019-01-19T10:17:47.548Z,1656.00
2019-01-19T10:18:47.490Z,1708.00
2019-01-19T10:19:47.478Z,1744.00
2019-01-19T10:20:47.482Z,1600.00
2019-01-19T10:21:47.515Z,1568.00
2019-01-19T10:22:47.448Z,1544.00
2019-01-19T10:23:47.459Z,1632.00
2019-01-19T10:24:47.493Z,1660.00
2019-01-19T10:25:47.412Z,1660.00
2019-01-19T10:26:47.426Z,1664.00
2019-01-19T10:27:47.413Z,1608.00
2019-01-19T10:28:47.380Z,1536.00
2019-01-19T10:29:47.389Z,1544.00
2019-01-19T10:30:47.356Z,1572.00
2019-01-19T10:31:47.345Z,1596.00
2019-01-19T10:32:47.346Z,1576.00
2019-01-19T10:33:47.321Z,1476.00
2019-01-19T10:34:47.310Z,1476.00
2019-01-19T10:35:47.393Z,1408.00
2019-01-19T10:36:47.289Z,1464.00
2019-01-19T10:37:47.277Z,1520.00
2019-01-19T10:38:47.268Z,1580.00
2019-01-19T10:39:47.269Z,1600.00
2019-01-19T10:40:47.259Z,1576.00
2019-01-19T10:41:47.289Z,1536.00
2019-01-19T10:42:47.222Z,1492.00
2019-01-19T10:43:47.211Z,1528.00
2019-01-19T10:44:47.217Z,1572.00
2019-01-19T10:45:47.207Z,1624.00
2019-01-19T10:46:47.176Z,1644.00
2019-01-19T10:47:47.211Z,1616.00
2019-01-19T10:48:47.155Z,1552.00
2019-01-19T10:49:47.167Z,1524.00
2019-01-19T10:50:47.134Z,1552.00
2019-01-19T10:51:47.120Z,1576.00
2019-01-19T10:52:47.110Z,1596.00
2019-01-19T10:53:47.137Z,1596.00
2019-01-19T10:54:47.092Z,1556.00
2019-01-19T10:55:47.078Z,1524.00
2019-01-19T10:56:47.081Z,1532.00
2019-01-19T10:57:47.078Z,1620.00
2019-01-19T10:58:47.043Z,1644.00
2019-01-19T10:59:47.057Z,1660.00
2019-01-19T11:00:47.030Z,1644.00
2019-01-19T11:01:47.053Z,1624.00
2019-01-19T11:02:47.003Z,1604.00
2019-01-19T11:03:46.987Z,1624.00
2019-01-19T11:04:46.977Z,1604.00
2019-01-19T11:05:46.977Z,1616.00
2019-01-19T11:06:46.971Z,1588.00
2019-01-19T11:07:46.946Z,1540.00
2019-01-19T11:08:46.951Z,1504.00
2019-01-19T11:09:46.921Z,1544.00
2019-01-19T11:10:46.920Z,1580.00
2019-01-19T11:11:46.910Z,1592.00
2019-01-19T11:12:46.917Z,1548.00
2019-01-19T11:13:54.432Z,1488.00
2019-01-19T11:14:46.866Z,1480.00
2019-01-19T11:15:46.852Z,1500.00
2019-01-19T11:16:46.870Z,1516.00
2019-01-19T11:17:46.840Z,1452.00
2019-01-19T11:18:46.821Z,1412.00
2019-01-19T11:19:46.817Z,1356.00
2019-01-19T11:20:46.808Z,1384.00
2019-01-19T11:21:46.804Z,1428.00
2019-01-19T11:22:46.783Z,1452.00
2019-01-19T11:23:46.767Z,1448.00
2019-01-19T11:24:46.761Z,1388.00
2019-01-19T11:25:46.744Z,1364.00
2019-01-19T11:26:46.731Z,1400.00
2019-01-19T11:27:46.742Z,1428.00
2019-01-19T11:28:46.709Z,1444.00
2019-01-19T11:29:46.696Z,1344.00
2019-01-19T11:30:46.703Z,1296.00
2019-01-19T11:31:46.676Z,1320.00
2019-01-19T11:32:46.663Z,1372.00
2019-01-19T11:33:46.672Z,1296.00
2019-01-19T11:34:46.640Z,1240.00
2019-01-19T11:35:46.629Z,1224.00
2019-01-19T11:36:46.655Z,1268.00
2019-01-19T11:37:46.619Z,1320.00
2019-01-19T11:38:46.595Z,1256.00
2019-01-19T11:39:46.602Z,1192.00
2019-01-19T11:40:46.576Z,1184.00
2019-01-19T11:41:46.571Z,1256.00
2019-01-19T11:42:46.552Z,1320.00
2019-01-19T11:43:46.624Z,1232.00
2019-01-19T11:44:46.534Z,1200.00
2019-01-19T11:45:46.532Z,1192.00
2019-01-19T11:46:46.519Z,1244.00
2019-01-19T11:47:46.503Z,1280.00
2019-01-19T11:48:46.507Z,1288.00
2019-01-19T11:49:46.475Z,1236.00
2019-01-19T11:50:46.489Z,1172.00
2019-01-19T11:51:46.470Z,1212.00
2019-01-19T11:52:46.444Z,1284.00
2019-01-19T11:53:46.433Z,1316.00
2019-01-19T11:54:46.440Z,1244.00
2019-01-19T11:55:46.408Z,1212.00
2019-01-19T11:56:46.423Z,1220.00
2019-01-19T11:57:46.396Z,1280.00
2019-01-19T11:58:46.375Z,1324.00
2019-01-19T11:59:46.361Z,1236.00
2019-01-19T12:00:46.360Z,1200.00
2019-01-19T12:01:46.340Z,1184.00
2019-01-19T12:02:46.363Z,1248.00
2019-01-19T12:03:46.318Z,1260.00
2019-01-19T12:04:46.311Z,1208.00
2019-01-19T12:05:46.298Z,1140.00
2019-01-19T12:06:46.333Z,1188.00
2019-01-19T12:07:46.276Z,1232.00
2019-01-19T12:08:46.286Z,1260.00
2019-01-19T12:09:46.250Z,1128.00
2019-01-19T12:10:46.240Z,1248.00
2019-01-19T12:11:46.251Z,1324.00
2019-01-19T12:12:46.217Z,1312.00
2019-01-19T12:13:46.210Z,1340.00
2019-01-19T12:14:46.237Z,1304.00
2019-01-19T12:15:46.188Z,1356.00
2019-01-19T12:16:46.173Z,1420.00
2019-01-19T12:17:46.161Z,1396.00
2019-01-19T12:18:46.151Z,1356.00
2019-01-19T12:19:46.139Z,1376.00
2019-01-19T12:20:46.154Z,1464.00
2019-01-19T12:21:46.116Z,1516.00
2019-01-19T12:22:46.106Z,1476.00
2019-01-19T12:23:46.095Z,1416.00
2019-01-19T12:24:46.086Z,1452.00
2019-01-19T12:25:46.070Z,1500.00
2019-01-19T12:26:46.085Z,1464.00
2019-01-19T12:27:46.051Z,1400.00
2019-01-19T12:28:46.041Z,1388.00
2019-01-19T12:29:46.027Z,1428.00
2019-01-19T12:30:46.023Z,1436.00
2019-01-19T12:31:46.018Z,1336.00
2019-01-19T12:32:46.016Z,1300.00
2019-01-19T12:33:46.025Z,1360.00
2019-01-19T12:34:45.972Z,1380.00
2019-01-19T12:35:45.961Z,1376.00
2019-01-19T12:36:45.949Z,1268.00
2019-01-19T12:37:45.940Z,1312.00
2019-01-19T12:38:45.947Z,1368.00
2019-01-19T12:39:45.922Z,1328.00
2019-01-19T12:40:45.906Z,1332.00
2019-01-19T12:41:45.895Z,1364.00
2019-01-19T12:42:45.895Z,1452.00
2019-01-19T12:43:45.874Z,1496.00
2019-01-19T12:44:45.860Z,1488.00
2019-01-19T12:45:45.874Z,1476.00
2019-01-19T12:46:45.838Z,1480.00
2019-01-19T12:47:45.827Z,1532.00